Airfield :
LOGIN :

Register | Disclaimer

   EN    FR    IT 

 










Legend :    VFR   Marginal VFR   IFR   Intensive IFR   Very Intensive IFR
Visi :
Ceiling :
>= 8 km
>= 3000ft
5 to 8 km
1000 to 3000 ft
1500m to 5 km
500 to 1000 ft
800 to 1500m
200 to 500 ft
< 800m
< 200 ft
Symbols :   Thunderstorms  Fog  Heavy snow  Heavy precipitations  Wind > 20 kt
SIGMETs :     Misc.  Thunderstorms  Icing  Turbulence  Mountain Waves  Volcanic Ashes






- Airport Elevation : 357 ft
- IATA code : TUF


LFOT - Tours

CURRENT METAR :
  • 200130Z AUTO 21008KT 9999 FEW009 OVC040 08/07 Q1023

EXPIRED METARs :
  • 200100Z AUTO 21008KT 9999 FEW008 OVC041 08/08 Q1023 TEMPO BKN006
  • 200030Z AUTO 21007KT 9999 FEW009 SCT018 OVC042 08/07 Q1023 TEMPO BKN006
  • 200000Z AUTO 20008KT 9999 FEW021 SCT034 OVC043 08/07 Q1024 TEMPO BKN006
  • 192330Z AUTO 21007KT 9999 OVC041 08/07 Q1024 TEMPO BKN006
  • 192300Z AUTO 21008KT 9999 OVC044 08/07 Q1024 NOSIG

TAF TAF LFOT
Valid from the 20 at 00:00 until the 21 at 00:00 UTC


192300Z 2000/2024 21008KT 9999 BKN025
TEMPO 2000/2008 BKN006
BECMG 2010/2012 22015G25KT
TEMPO 2017/2020 22020G38KT 3000 RA BKN012
BECMG 2020/2022 26006KT CAVOK



MET'MAP, your aeronautical weather chart ! - Copyright ORBIFLY December 2007 - Disclaimer

ORBIFLY MET'MAP TEAM :

Programming & Development : Alexandra Zaïnal
Concept & original design : Baudouin d'Aumeries
Assistance for programming : Marc-Olivier Méhu
Technical & hardware support : Manuel Goepfert

Contact : metmap@orbifly.com




SOURCES & CREDITS :

   NOAA